Time;durP1;ratioP1;P1;durP2;ratioP2;P2;SDS_P1;SDS_P2;PMS_P1;PMS_P2;Temp;Humidity;BMP_temperature;BMP_pressure;BME280_temperature;BME280_humidity;BME280_pressure;Samples;Min_cycle;Max_cycle;Signal;HPM_P1;HPM_P2
2022/12/27 00:02:21;;;;;;;19.55;13.40;;;3.00;99.90;;;;;;5002843;28;20054;-74
2022/12/27 00:04:48;;;;;;;13.65;12.48;;;2.90;99.90;;;;;;4993329;28;20831;-74
2022/12/27 00:07:15;;;;;;;13.55;11.77;;;2.90;99.90;;;;;;4996296;28;20636;-75
2022/12/27 00:09:42;;;;;;;12.82;11.77;;;2.90;99.90;;;;;;4987030;28;20470;-76
2022/12/27 00:12:09;;;;;;;14.90;13.38;;;2.90;99.90;;;;;;4979859;28;20855;-75
2022/12/27 00:14:36;;;;;;;14.80;12.98;;;3.00;99.90;;;;;;4969860;28;20384;-74
2022/12/27 00:17:03;;;;;;;17.05;13.18;;;3.00;99.90;;;;;;4980450;28;20183;-75
2022/12/27 00:19:29;;;;;;;14.52;13.30;;;3.00;99.90;;;;;;4983178;28;20124;-78
2022/12/27 00:21:56;;;;;;;14.98;13.55;;;3.10;99.90;;;;;;4977150;28;20214;-77
2022/12/27 00:24:23;;;;;;;15.90;12.20;;;3.00;99.90;;;;;;4986395;28;20050;-79
2022/12/27 00:26:50;;;;;;;12.98;11.88;;;3.10;99.90;;;;;;4987502;28;20095;-78
2022/12/27 00:29:16;;;;;;;13.40;12.45;;;3.10;99.90;;;;;;4986471;28;20234;-75
2022/12/27 00:31:43;;;;;;;12.70;11.70;;;3.20;99.90;;;;;;4966425;28;20034;-76
2022/12/27 00:34:10;;;;;;;12.77;12.00;;;3.20;99.90;;;;;;4979927;28;20590;-78
2022/12/27 00:36:36;;;;;;;12.57;11.60;;;3.30;99.90;;;;;;4984183;28;20066;-75
2022/12/27 00:39:04;;;;;;;12.55;11.60;;;3.30;99.90;;;;;;4979957;28;20042;-76
2022/12/27 00:41:31;;;;;;;13.30;11.88;;;3.30;99.90;;;;;;4980935;28;20141;-74
2022/12/27 00:43:58;;;;;;;13.77;12.57;;;3.30;99.90;;;;;;4974446;28;20152;-74
2022/12/27 00:46:24;;;;;;;13.07;11.98;;;3.30;99.90;;;;;;4988947;28;20050;-75
2022/12/27 00:48:51;;;;;;;13.38;12.20;;;3.20;99.90;;;;;;4978408;28;20164;-75
2022/12/27 00:51:21;;;;;;;12.30;11.50;;;3.20;99.90;;;;;;4983866;28;20260;-75
2022/12/27 00:53:49;;;;;;;13.10;11.93;;;3.20;99.90;;;;;;4977531;28;20057;-75
2022/12/27 00:56:19;;;;;;;13.63;12.52;;;3.20;99.90;;;;;;4986433;28;21359;-76
2022/12/27 00:58:47;;;;;;;12.63;11.52;;;3.30;99.90;;;;;;4983205;28;20230;-75
2022/12/27 01:01:16;;;;;;;13.23;12.20;;;3.30;99.90;;;;;;4977521;28;20046;-74
2022/12/27 01:03:44;;;;;;;14.05;12.82;;;3.40;99.90;;;;;;4988938;28;20061;-75
2022/12/27 01:06:14;;;;;;;13.32;12.27;;;3.40;99.90;;;;;;4979700;28;20042;-76
2022/12/27 01:08:41;;;;;;;14.25;12.50;;;3.40;99.90;;;;;;4985600;28;20128;-73
2022/12/27 01:11:10;;;;;;;14.48;12.75;;;3.40;99.90;;;;;;4976613;28;20050;-77
2022/12/27 01:13:37;;;;;;;12.73;12.02;;;3.40;99.90;;;;;;4982118;28;20372;-73
2022/12/27 01:16:10;;;;;;;13.85;12.60;;;3.40;99.90;;;;;;4975585;28;20382;-75
2022/12/27 01:18:37;;;;;;;13.68;12.40;;;3.30;99.90;;;;;;4985556;28;20046;-75
2022/12/27 01:21:08;;;;;;;13.38;12.32;;;3.30;99.90;;;;;;4974490;28;20031;-75
2022/12/27 01:23:36;;;;;;;13.93;12.07;;;3.20;99.90;;;;;;4987463;28;20141;-78
2022/12/27 01:26:05;;;;;;;13.05;11.77;;;3.20;99.90;;;;;;4965347;28;20364;-76
2022/12/27 01:28:33;;;;;;;16.67;12.00;;;3.20;99.90;;;;;;4990510;28;20046;-77
2022/12/27 01:31:05;;;;;;;14.52;12.30;;;3.20;99.90;;;;;;4955866;28;20108;-75
2022/12/27 01:33:31;;;;;;;12.45;11.43;;;3.20;99.90;;;;;;4982765;28;20553;-74
2022/12/27 01:36:26;;;;;;;12.07;11.02;;;3.20;99.90;;;;;;4960213;28;20050;-76
2022/12/27 01:38:53;;;;;;;11.80;11.07;;;3.30;99.90;;;;;;4979568;28;20877;-74
2022/12/27 01:44:42;;;;;;;12.85;11.27;;;3.40;99.90;;;;;;4978631;28;20077;-76
2022/12/27 01:47:33;;;;;;;12.27;11.00;;;3.40;99.90;;;;;;4979614;28;20601;-75
2022/12/27 01:50:28;;;;;;;18.23;12.07;;;3.40;99.90;;;;;;4978127;28;20427;-75
2022/12/27 01:52:55;;;;;;;12.43;11.27;;;3.30;99.90;;;;;;4977653;28;20139;-74
2022/12/27 01:55:36;;;;;;;15.52;12.80;;;3.30;99.90;;;;;;4983637;28;20453;-74
2022/12/27 01:58:30;;;;;;;11.85;10.50;;;3.30;99.90;;;;;;4962988;28;20065;-73
2022/12/27 02:00:57;;;;;;;12.15;10.98;;;3.20;99.90;;;;;;4971088;28;20050;-74
2022/12/27 02:03:29;;;;;;;11.77;10.90;;;3.30;99.90;;;;;;4984452;28;20565;-73
2022/12/27 02:05:57;;;;;;;11.95;10.85;;;3.30;99.90;;;;;;4977588;28;20050;-74
2022/12/27 02:08:31;;;;;;;11.50;10.48;;;3.30;99.90;;;;;;4987051;28;20129;-75
2022/12/27 02:10:59;;;;;;;12.98;11.00;;;3.30;99.90;;;;;;4973642;28;20982;-76
2022/12/27 02:13:30;;;;;;;15.15;11.32;;;3.30;99.90;;;;;;4985920;28;20141;-71
2022/12/27 02:15:57;;;;;;;12.77;10.27;;;3.30;99.90;;;;;;4975472;28;20077;-74
2022/12/27 02:18:24;;;;;;;11.00;10.02;;;3.30;99.90;;;;;;5010198;28;20160;-73
2022/12/27 02:21:24;;;;;;;12.27;10.20;;;3.30;99.90;;;;;;4976587;28;20331;-75
2022/12/27 02:24:27;;;;;;;11.48;10.45;;;3.40;99.90;;;;;;4981788;28;20144;-71
2022/12/27 02:27:06;;;;;;;12.10;11.05;;;3.40;99.90;;;;;;4993452;28;20046;-75
2022/12/27 02:29:40;;;;;;;10.88;9.93;;;3.40;99.90;;;;;;4982785;28;20056;-77
2022/12/27 02:32:21;;;;;;;11.65;10.68;;;3.40;99.90;;;;;;4975509;28;20590;-76
2022/12/27 02:34:59;;;;;;;11.32;10.20;;;3.40;99.90;;;;;;4979256;28;20046;-72
2022/12/27 02:37:30;;;;;;;16.10;10.50;;;3.40;99.90;;;;;;4982234;28;20077;-74
2022/12/27 02:53:02;;;;;;;10.77;9.52;;;3.40;99.90;;;;;;4960158;28;20038;-72
2022/12/27 02:54:38;;;;;;;13.50;10.68;;;3.50;99.90;;;;;;4979412;28;20045;-76
2022/12/27 02:57:21;;;;;;;12.63;9.98;;;3.60;99.90;;;;;;4974686;28;20488;-78
2022/12/27 03:03:19;;;;;;;11.75;10.55;;;3.60;99.90;;;;;;4953483;28;20105;-72
2022/12/27 03:15:53;;;;;;;15.15;11.70;;;3.60;99.90;;;;;;4967849;28;20097;-75
2022/12/27 03:18:26;;;;;;;14.48;10.93;;;3.70;99.90;;;;;;4976159;28;20049;-75
2022/12/27 03:26:33;;;;;;;13.18;10.10;;;3.80;99.90;;;;;;4978748;28;20043;-74
2022/12/27 03:34:43;;;;;;;11.77;10.52;;;3.80;99.90;;;;;;4980646;28;20070;-73
2022/12/27 03:40:33;;;;;;;12.68;11.10;;;3.90;99.90;;;;;;4974792;28;20113;-73
2022/12/27 03:43:10;;;;;;;18.15;13.10;;;3.90;99.90;;;;;;4974760;28;20146;-73
2022/12/27 03:48:49;;;;;;;16.30;10.73;;;3.90;99.90;;;;;;4974621;28;20074;-73
2022/12/27 03:51:20;;;;;;;17.73;11.02;;;3.90;99.90;;;;;;4980087;28;20038;-73
2022/12/27 03:53:49;;;;;;;13.77;10.73;;;3.90;99.90;;;;;;4963148;28;20149;-73
2022/12/27 03:56:17;;;;;;;23.10;11.82;;;3.90;99.90;;;;;;4958699;28;20047;-73
2022/12/27 03:58:44;;;;;;;17.80;10.18;;;4.00;99.90;;;;;;4999106;28;20056;-73
2022/12/27 04:01:10;;;;;;;10.88;9.75;;;4.00;99.90;;;;;;4975833;28;20619;-73
2022/12/27 04:03:37;;;;;;;11.85;10.82;;;4.00;99.90;;;;;;4992404;28;20054;-73
2022/12/27 04:06:04;;;;;;;28.60;11.85;;;4.10;99.90;;;;;;4983999;28;20297;-73
2022/12/27 04:36:06;;;;;;;19.77;11.95;;;4.20;99.90;;;;;;4984943;28;20045;-73
2022/12/27 04:38:33;;;;;;;16.75;11.85;;;4.20;99.90;;;;;;4978532;28;20133;-73
2022/12/27 04:55:16;;;;;;;15.82;13.52;;;4.10;99.90;;;;;;4980064;28;20060;-73
2022/12/27 04:57:42;;;;;;;18.30;11.85;;;4.20;99.90;;;;;;4962145;28;20085;-73
2022/12/27 05:02:56;;;;;;;13.80;11.38;;;4.20;99.90;;;;;;5001374;28;20078;-73
2022/12/27 05:05:24;;;;;;;12.55;11.07;;;4.30;99.90;;;;;;4993612;28;20390;-73
2022/12/27 05:16:08;;;;;;;14.15;11.02;;;4.30;99.90;;;;;;4996650;28;19926;-73
2022/12/27 05:18:35;;;;;;;13.65;10.25;;;4.30;99.90;;;;;;4962803;28;20533;-73
2022/12/27 05:21:04;;;;;;;12.02;10.77;;;4.30;99.90;;;;;;4988936;28;20061;-73
2022/12/27 05:26:22;;;;;;;21.40;10.93;;;4.30;99.90;;;;;;4973815;28;20055;-74
2022/12/27 05:28:51;;;;;;;21.27;12.13;;;4.30;99.90;;;;;;4962620;28;20449;-73
2022/12/27 05:31:19;;;;;;;12.60;11.32;;;4.30;99.90;;;;;;4990228;28;20072;-73
2022/12/27 05:33:46;;;;;;;16.73;12.07;;;4.30;99.90;;;;;;4987753;28;20059;-73
2022/12/27 05:36:13;;;;;;;16.17;11.48;;;4.40;99.90;;;;;;4999161;28;20061;-73
2022/12/27 05:38:40;;;;;;;17.38;11.40;;;4.40;99.90;;;;;;4961919;28;20145;-73
2022/12/27 05:41:06;;;;;;;13.70;11.15;;;4.40;99.90;;;;;;4989531;28;20047;-74
2022/12/27 05:43:34;;;;;;;15.52;13.00;;;4.40;99.90;;;;;;4990906;28;20058;-73
2022/12/27 05:46:09;;;;;;;21.38;11.65;;;4.40;99.90;;;;;;4974152;28;20042;-73
2022/12/27 05:48:37;;;;;;;15.60;12.13;;;4.40;99.90;;;;;;4999687;28;20042;-73
2022/12/27 05:51:13;;;;;;;22.17;11.20;;;4.40;99.90;;;;;;4973835;28;20112;-74
2022/12/27 05:53:40;;;;;;;19.45;12.10;;;4.40;99.90;;;;;;5004747;28;20121;-74
2022/12/27 05:56:08;;;;;;;15.25;11.40;;;4.40;99.90;;;;;;4974388;28;20125;-73
2022/12/27 05:58:34;;;;;;;19.23;11.55;;;4.40;99.90;;;;;;4968444;28;20047;-73
2022/12/27 06:01:08;;;;;;;18.42;11.82;;;4.40;99.90;;;;;;4977824;28;20137;-73
2022/12/27 06:03:35;;;;;;;13.25;11.38;;;4.40;99.90;;;;;;5005776;28;20516;-74
2022/12/27 06:06:03;;;;;;;21.33;11.90;;;4.40;99.90;;;;;;4956276;28;20413;-73
2022/12/27 06:08:30;;;;;;;21.13;12.43;;;4.40;99.90;;;;;;4973440;28;20035;-73
2022/12/27 06:11:15;;;;;;;17.55;13.10;;;4.40;99.90;;;;;;4954161;28;20138;-73
2022/12/27 06:13:47;;;;;;;25.25;15.18;;;4.40;99.90;;;;;;4977302;28;20034;-73
2022/12/27 06:16:13;;;;;;;23.73;12.52;;;4.30;99.90;;;;;;4982428;28;20049;-73
2022/12/27 06:18:41;;;;;;;24.17;13.52;;;4.30;99.90;;;;;;4960048;28;20263;-73
2022/12/27 06:21:17;;;;;;;22.05;14.23;;;4.30;99.90;;;;;;4972673;28;20046;-73
2022/12/27 06:23:45;;;;;;;20.83;11.70;;;4.30;99.90;;;;;;4998465;28;20523;-73
2022/12/27 06:26:18;;;;;;;18.95;13.25;;;4.30;99.90;;;;;;4989577;28;20499;-73
2022/12/27 06:28:45;;;;;;;25.33;12.90;;;4.30;99.90;;;;;;4996149;28;20030;-73
2022/12/27 06:31:12;;;;;;;20.15;12.77;;;4.30;99.90;;;;;;4969536;28;20746;-73
2022/12/27 06:33:39;;;;;;;15.80;11.70;;;4.30;99.90;;;;;;4997558;28;20074;-73
2022/12/27 06:36:12;;;;;;;21.15;12.48;;;4.30;99.90;;;;;;4956573;28;20061;-73
2022/12/27 06:38:39;;;;;;;22.05;12.73;;;4.30;99.90;;;;;;4995403;28;20521;-73
2022/12/27 06:41:09;;;;;;;25.35;11.93;;;4.40;99.90;;;;;;4958366;28;20057;-73
2022/12/27 06:43:37;;;;;;;19.67;12.25;;;4.30;99.90;;;;;;4997130;28;20509;-73
2022/12/27 06:46:07;;;;;;;17.02;13.40;;;4.30;99.90;;;;;;4987174;28;20061;-73
2022/12/27 06:48:39;;;;;;;21.45;12.13;;;4.40;99.90;;;;;;4964071;28;20039;-73
2022/12/27 06:51:09;;;;;;;21.25;12.02;;;4.40;99.90;;;;;;4974196;28;21608;-73
2022/12/27 06:53:36;;;;;;;17.02;11.82;;;4.40;99.90;;;;;;4996424;28;20565;-73
2022/12/27 06:56:04;;;;;;;15.20;13.10;;;4.40;99.90;;;;;;4969159;28;20265;-73
2022/12/27 06:58:31;;;;;;;17.50;11.82;;;4.40;99.90;;;;;;4962194;28;20121;-73
2022/12/27 07:01:05;;;;;;;14.23;12.50;;;4.40;99.90;;;;;;4970783;28;20278;-72
2022/12/27 07:03:31;;;;;;;16.73;11.57;;;4.40;99.90;;;;;;4986161;28;20081;-73
2022/12/27 07:06:02;;;;;;;19.23;13.02;;;4.40;99.90;;;;;;4966356;28;20216;-73
2022/12/27 07:08:29;;;;;;;21.15;12.52;;;4.40;99.90;;;;;;4988906;28;20091;-73
2022/12/27 07:11:00;;;;;;;20.88;12.63;;;4.40;99.90;;;;;;4978177;28;20039;-73
2022/12/27 07:13:32;;;;;;;26.33;15.05;;;4.40;99.90;;;;;;4969761;28;20046;-73
2022/12/27 07:15:58;;;;;;;26.88;12.50;;;4.40;99.90;;;;;;4963920;28;20066;-73
2022/12/27 07:18:25;;;;;;;16.80;12.57;;;4.40;99.90;;;;;;4949429;28;20505;-73
2022/12/27 07:20:52;;;;;;;17.63;12.82;;;4.40;99.90;;;;;;4967455;28;20042;-73
2022/12/27 07:23:19;;;;;;;25.23;13.27;;;4.30;99.90;;;;;;4955356;28;20043;-74
2022/12/27 07:25:46;;;;;;;21.20;13.95;;;4.30;99.90;;;;;;4987338;28;20307;-73
2022/12/27 07:28:12;;;;;;;24.30;14.35;;;4.30;99.90;;;;;;4972563;28;21159;-73
2022/12/27 07:30:40;;;;;;;17.95;14.40;;;4.30;99.90;;;;;;4982025;28;20043;-73
2022/12/27 07:33:07;;;;;;;22.92;15.35;;;4.30;99.90;;;;;;4960953;28;20034;-73
2022/12/27 07:35:34;;;;;;;22.88;15.43;;;4.30;99.90;;;;;;4994433;28;20051;-73
2022/12/27 07:38:04;;;;;;;20.65;16.05;;;4.30;99.90;;;;;;4992021;28;20057;-73
2022/12/27 07:40:30;;;;;;;21.85;13.98;;;4.30;99.90;;;;;;4976052;28;20495;-73
2022/12/27 07:42:57;;;;;;;23.25;13.48;;;4.30;99.90;;;;;;4974257;28;20054;-73
2022/12/27 07:45:24;;;;;;;21.67;14.60;;;4.30;99.90;;;;;;4998404;28;20702;-73
2022/12/27 07:47:50;;;;;;;29.80;14.85;;;4.30;99.90;;;;;;4975085;28;20050;-72
2022/12/27 07:50:17;;;;;;;27.02;15.55;;;4.30;99.90;;;;;;4981788;28;20688;-73
2022/12/27 07:52:44;;;;;;;25.17;16.27;;;4.30;99.90;;;;;;4980723;28;20051;-73
2022/12/27 07:55:11;;;;;;;24.90;16.65;;;4.30;99.90;;;;;;4986372;28;20069;-73
2022/12/27 07:57:37;;;;;;;30.00;17.83;;;4.30;99.90;;;;;;4968246;28;20501;-74
2022/12/27 08:00:05;;;;;;;26.60;15.57;;;4.30;99.90;;;;;;4990675;28;20061;-73
2022/12/27 08:02:37;;;;;;;20.92;15.50;;;4.30;99.90;;;;;;5009617;28;20070;-73
2022/12/27 08:05:04;;;;;;;23.92;14.50;;;4.30;99.90;;;;;;4989262;28;20355;-73
2022/12/27 08:07:32;;;;;;;29.52;16.95;;;4.30;99.90;;;;;;4994373;28;20035;-73
2022/12/27 08:09:58;;;;;;;23.92;17.05;;;4.30;99.90;;;;;;4964453;28;20046;-73
2022/12/27 08:12:25;;;;;;;26.48;16.52;;;4.30;99.90;;;;;;4977853;28;20037;-73
2022/12/27 08:14:52;;;;;;;19.80;15.20;;;4.30;99.90;;;;;;4973781;28;20361;-73
2022/12/27 08:17:22;;;;;;;21.80;15.52;;;4.30;99.90;;;;;;4985067;28;20445;-73
2022/12/27 08:19:51;;;;;;;21.55;17.67;;;4.30;99.90;;;;;;4963427;28;20124;-73
2022/12/27 08:22:17;;;;;;;21.92;16.83;;;4.40;99.90;;;;;;4999391;28;20038;-73
2022/12/27 08:24:44;;;;;;;27.52;16.80;;;4.40;99.90;;;;;;4964596;28;20051;-73
2022/12/27 08:27:11;;;;;;;24.13;17.38;;;4.30;99.90;;;;;;4974938;28;20576;-73
2022/12/27 08:29:38;;;;;;;17.40;14.18;;;4.30;99.90;;;;;;4998953;28;20049;-73
2022/12/27 08:32:05;;;;;;;25.83;16.77;;;4.30;99.90;;;;;;4983600;28;20461;-73
2022/12/27 08:34:31;;;;;;;20.67;16.02;;;4.30;99.90;;;;;;4985948;28;20398;-73
2022/12/27 08:36:59;;;;;;;28.13;16.73;;;4.30;99.90;;;;;;4988183;28;20066;-73
2022/12/27 08:39:26;;;;;;;24.98;16.73;;;4.40;99.90;;;;;;4976776;28;20058;-73
2022/12/27 08:41:53;;;;;;;28.27;16.88;;;4.40;99.90;;;;;;4980793;28;20119;-73
2022/12/27 08:44:20;;;;;;;25.80;19.30;;;4.40;99.90;;;;;;4984643;28;20043;-73
2022/12/27 08:46:47;;;;;;;27.63;18.15;;;4.40;99.90;;;;;;4986713;28;20043;-73
2022/12/27 08:49:13;;;;;;;28.58;20.35;;;4.30;99.90;;;;;;4964183;28;20058;-73
2022/12/27 08:51:40;;;;;;;27.08;18.95;;;4.30;99.90;;;;;;5001757;28;20404;-73
2022/12/27 08:54:08;;;;;;;29.23;18.77;;;4.40;99.90;;;;;;4962674;28;20104;-73
2022/12/27 08:56:34;;;;;;;32.33;20.65;;;4.40;99.90;;;;;;4971214;28;20043;-73
2022/12/27 08:59:02;;;;;;;20.85;17.02;;;4.40;99.90;;;;;;5038537;23;20107;-73
2022/12/27 09:01:28;;;;;;;26.35;18.00;;;4.40;99.90;;;;;;5016349;28;20065;-72
2022/12/27 09:03:55;;;;;;;27.05;18.83;;;4.40;99.90;;;;;;5014315;28;20596;-72
2022/12/27 09:06:23;;;;;;;20.58;16.83;;;4.50;99.90;;;;;;5017111;28;20038;-72
2022/12/27 09:08:51;;;;;;;23.85;17.77;;;4.50;99.90;;;;;;5005780;28;20053;-72
2022/12/27 09:11:20;;;;;;;24.90;19.08;;;4.50;99.90;;;;;;4993954;28;20331;-72
2022/12/27 09:13:47;;;;;;;21.40;14.85;;;4.60;99.90;;;;;;4998235;28;20041;-72
2022/12/27 09:16:17;;;;;;;20.98;15.30;;;4.50;99.90;;;;;;4990857;28;20042;-72
2022/12/27 09:18:47;;;;;;;17.63;14.93;;;4.50;99.90;;;;;;4996870;28;20236;-72
2022/12/27 09:21:15;;;;;;;26.10;15.18;;;4.50;99.90;;;;;;4992278;28;20551;-72
2022/12/27 09:23:43;;;;;;;22.77;17.70;;;4.50;99.90;;;;;;4996519;28;20081;-72
2022/12/27 09:26:16;;;;;;;19.65;17.83;;;4.60;99.90;;;;;;4992106;28;20056;-72
2022/12/27 09:28:43;;;;;;;26.33;20.45;;;4.60;99.90;;;;;;4994007;28;20114;-71
2022/12/27 09:31:11;;;;;;;19.92;17.85;;;4.60;99.90;;;;;;5004215;28;20070;-72
2022/12/27 09:33:38;;;;;;;26.30;20.35;;;4.60;99.90;;;;;;4978812;28;20065;-72
2022/12/27 09:36:09;;;;;;;22.23;18.80;;;4.60;99.90;;;;;;5002308;28;20463;-72
2022/12/27 09:38:36;;;;;;;19.73;17.65;;;4.60;99.90;;;;;;4997130;28;20068;-72
2022/12/27 09:41:06;;;;;;;19.92;16.95;;;4.60;99.90;;;;;;4985644;28;20134;-72
2022/12/27 09:43:38;;;;;;;25.55;17.00;;;4.60;99.90;;;;;;4993066;28;20057;-73
2022/12/27 09:46:13;;;;;;;23.17;18.48;;;4.60;99.90;;;;;;4989977;28;20416;-71
2022/12/27 09:48:40;;;;;;;22.50;18.40;;;4.60;99.90;;;;;;4996957;28;20045;-73
2022/12/27 09:51:19;;;;;;;19.58;17.65;;;4.70;99.90;;;;;;4990073;28;20038;-71
2022/12/27 09:54:09;;;;;;;19.75;17.55;;;4.70;99.90;;;;;;4994932;28;20516;-70
2022/12/27 09:56:36;;;;;;;19.98;17.90;;;4.80;99.90;;;;;;4993441;28;20041;-71
2022/12/27 09:59:37;;;;;;;20.83;18.52;;;4.80;99.90;;;;;;4988257;28;20377;-71
2022/12/27 10:02:25;;;;;;;29.33;18.92;;;4.80;99.90;;;;;;4988632;28;20037;-71
2022/12/27 10:04:53;;;;;;;21.35;16.58;;;4.80;99.90;;;;;;4991908;28;20053;-70
2022/12/27 10:07:59;;;;;;;16.73;15.35;;;4.80;99.90;;;;;;4984439;28;20508;-71
2022/12/27 10:11:04;;;;;;;19.08;16.80;;;4.90;99.90;;;;;;4983065;28;20489;-70
2022/12/27 10:13:48;;;;;;;24.63;16.20;;;4.80;99.90;;;;;;4982685;28;20052;-72
2022/12/27 10:16:33;;;;;;;23.80;19.23;;;4.90;99.90;;;;;;4981569;28;20305;-72
2022/12/27 10:19:04;;;;;;;;;;;4.90;99.90;;;;;;4985857;28;20050;-71
2022/12/27 10:21:36;;;;;;;20.98;16.88;;;4.90;99.90;;;;;;4994462;28;19935;-72
2022/12/27 10:24:23;;;;;;;22.48;17.75;;;5.00;99.90;;;;;;4991648;28;20045;-72
2022/12/27 10:26:53;;;;;;;20.45;18.40;;;5.00;99.90;;;;;;4990353;28;20072;-72
2022/12/27 10:29:23;;;;;;;19.90;17.73;;;4.90;99.90;;;;;;4974819;28;20266;-73
2022/12/27 10:31:51;;;;;;;21.15;18.00;;;4.90;99.90;;;;;;5013538;28;20050;-72
2022/12/27 10:34:23;;;;;;;18.88;17.27;;;4.90;99.90;;;;;;4980277;28;20532;-72
2022/12/27 10:36:51;;;;;;;20.13;18.17;;;4.80;99.90;;;;;;4989890;28;20520;-72
2022/12/27 10:39:20;;;;;;;19.85;17.90;;;4.90;99.90;;;;;;4992370;28;20056;-72
2022/12/27 10:42:16;;;;;;;18.40;16.42;;;4.90;99.90;;;;;;4989076;28;20321;-72
2022/12/27 10:44:43;;;;;;;17.88;16.20;;;4.90;99.90;;;;;;4971775;28;20046;-71
2022/12/27 10:47:10;;;;;;;18.92;17.13;;;4.90;99.90;;;;;;4986508;28;20041;-72
2022/12/27 10:49:38;;;;;;;21.60;17.25;;;4.90;99.90;;;;;;4987564;28;20049;-72
2022/12/27 10:52:21;;;;;;;21.38;18.90;;;4.90;99.90;;;;;;4984411;28;20042;-72
2022/12/27 10:54:53;;;;;;;24.10;19.45;;;5.00;99.90;;;;;;4984344;28;20041;-72
2022/12/27 10:57:34;;;;;;;21.67;19.67;;;5.00;99.90;;;;;;4996808;28;20046;-72
2022/12/27 11:00:21;;;;;;;22.17;19.88;;;5.00;99.90;;;;;;4983360;28;21327;-72
2022/12/27 11:02:53;;;;;;;21.85;18.50;;;5.00;99.90;;;;;;4979328;28;20100;-72
2022/12/27 11:05:31;;;;;;;24.45;20.27;;;5.00;99.90;;;;;;4977144;28;20043;-72
2022/12/27 11:08:00;;;;;;;24.52;18.38;;;5.00;99.90;;;;;;4988530;28;20045;-72
2022/12/27 11:10:32;;;;;;;22.17;18.55;;;5.00;99.90;;;;;;4997229;28;20125;-72
2022/12/27 11:13:04;;;;;;;23.00;18.30;;;5.00;99.90;;;;;;4992832;28;20431;-72
2022/12/27 11:15:36;;;;;;;21.30;19.08;;;5.00;99.90;;;;;;4988232;28;20070;-72
2022/12/27 11:18:10;;;;;;;20.58;18.42;;;5.00;99.90;;;;;;4988966;28;20042;-72
2022/12/27 11:20:46;;;;;;;22.13;20.15;;;5.00;99.90;;;;;;4994712;28;20132;-72
2022/12/27 11:23:16;;;;;;;22.08;19.25;;;5.10;99.90;;;;;;5019483;28;20390;-72
2022/12/27 11:25:52;;;;;;;21.95;19.80;;;5.20;99.90;;;;;;4989415;28;20049;-72
2022/12/27 11:28:41;;;;;;;21.45;19.35;;;5.30;99.90;;;;;;4996510;28;20038;-72
2022/12/27 11:31:10;;;;;;;20.98;18.52;;;5.30;99.90;;;;;;5016865;28;20038;-72
2022/12/27 11:33:49;;;;;;;23.02;18.98;;;5.30;99.90;;;;;;4996986;28;20042;-72
2022/12/27 11:36:27;;;;;;;20.10;17.70;;;5.20;99.90;;;;;;5003090;28;20075;-72
2022/12/27 11:38:54;;;;;;;21.92;18.30;;;5.30;99.90;;;;;;5034770;28;20080;-72
2022/12/27 11:41:41;;;;;;;22.65;17.92;;;5.20;99.90;;;;;;5023742;28;20076;-72
2022/12/27 11:44:11;;;;;;;24.65;19.25;;;5.30;99.90;;;;;;4998541;28;20050;-72
2022/12/27 11:46:46;;;;;;;18.85;16.88;;;5.30;99.90;;;;;;4991193;28;20067;-72
2022/12/27 11:49:29;;;;;;;18.35;16.92;;;5.30;99.90;;;;;;4992522;28;20070;-72
2022/12/27 11:52:06;;;;;;;25.13;17.05;;;5.20;99.90;;;;;;4990449;28;20039;-72
2022/12/27 11:55:02;;;;;;;26.95;17.77;;;5.30;99.90;;;;;;4996046;28;20046;-71
2022/12/27 11:58:06;;;;;;;20.48;18.27;;;5.30;99.90;;;;;;4986622;28;20040;-72
2022/12/27 12:01:03;;;;;;;27.27;20.10;;;5.30;99.90;;;;;;4994292;28;20129;-72
2022/12/27 12:04:00;;;;;;;20.15;18.25;;;5.40;99.90;;;;;;4977582;28;20531;-72
2022/12/27 12:06:45;;;;;;;21.05;19.45;;;5.40;99.90;;;;;;4983317;28;20042;-72
2022/12/27 12:09:33;;;;;;;20.33;17.73;;;5.60;99.90;;;;;;5023919;28;20046;-72
2022/12/27 12:12:00;;;;;;;23.23;17.80;;;5.60;99.90;;;;;;4983390;28;20559;-72
2022/12/27 12:14:55;;;;;;;20.13;18.05;;;5.70;99.90;;;;;;5018154;28;20133;-72
2022/12/27 12:17:50;;;;;;;34.00;20.33;;;5.70;99.90;;;;;;4995932;28;20068;-72
2022/12/27 12:20:40;;;;;;;20.50;17.30;;;5.70;99.90;;;;;;4989549;28;21145;-72
2022/12/27 12:23:48;;;;;;;20.08;18.25;;;5.70;99.90;;;;;;4996614;28;20042;-72
2022/12/27 12:26:20;;;;;;;43.00;29.40;;;5.60;99.90;;;;;;4992070;28;20540;-72
2022/12/27 12:28:59;;;;;;;25.00;22.25;;;5.60;99.90;;;;;;5000814;28;20046;-72
2022/12/27 12:31:57;;;;;;;26.88;23.02;;;5.70;99.90;;;;;;4993819;28;20045;-73
2022/12/27 12:34:58;;;;;;;23.17;21.33;;;5.70;99.90;;;;;;4996237;28;20046;-71
2022/12/27 12:37:39;;;;;;;24.10;21.63;;;5.80;99.90;;;;;;4996381;28;20045;-74
2022/12/27 12:40:31;;;;;;;25.65;23.13;;;5.90;99.90;;;;;;4995664;28;20042;-71
2022/12/27 12:43:07;;;;;;;25.02;23.05;;;5.90;99.90;;;;;;4989772;28;20298;-71
2022/12/27 12:45:44;;;;;;;23.98;22.15;;;5.90;99.90;;;;;;4991241;28;20504;-71
2022/12/27 12:48:40;;;;;;;25.48;23.65;;;5.90;99.90;;;;;;4996203;28;20104;-72
2022/12/27 12:51:07;;;;;;;;;;;5.90;99.90;;;;;;4994098;28;20054;-71
2022/12/27 12:53:52;;;;;;;25.60;21.83;;;6.00;99.90;;;;;;4993121;28;20539;-71
2022/12/27 12:56:42;;;;;;;24.63;22.27;;;6.00;99.90;;;;;;4996473;28;20041;-71
2022/12/27 12:59:20;;;;;;;21.02;19.27;;;6.00;99.90;;;;;;4988107;28;20134;-71
2022/12/27 13:01:59;;;;;;;20.65;18.65;;;5.90;99.90;;;;;;4992896;28;20065;-71
2022/12/27 13:04:33;;;;;;;21.98;19.75;;;5.90;99.90;;;;;;5021257;28;20536;-71
2022/12/27 13:07:15;;;;;;;20.90;19.02;;;5.90;99.90;;;;;;4991254;28;20080;-74
2022/12/27 13:10:13;;;;;;;30.15;19.92;;;5.90;99.90;;;;;;5018694;28;20166;-71
2022/12/27 13:13:03;;;;;;;20.00;18.27;;;5.90;99.90;;;;;;4991154;28;20129;-71
2022/12/27 13:15:59;;;;;;;21.33;19.52;;;5.90;99.90;;;;;;5004970;28;20045;-71
2022/12/27 13:18:38;;;;;;;18.85;17.60;;;5.90;99.90;;;;;;4998172;28;20057;-72
2022/12/27 13:21:41;;;;;;;20.48;18.13;;;5.90;99.90;;;;;;4989176;28;20046;-72
2022/12/27 13:24:37;;;;;;;25.50;19.85;;;5.90;99.90;;;;;;4984979;28;20446;-71
2022/12/27 13:27:19;;;;;;;22.58;20.80;;;5.90;99.90;;;;;;4994531;28;20042;-72
2022/12/27 13:30:10;;;;;;;24.17;22.23;;;5.90;99.90;;;;;;5014250;28;20065;-71
2022/12/27 13:33:08;;;;;;;26.27;23.98;;;6.00;99.90;;;;;;4997251;28;20069;-71
2022/12/27 13:36:16;;;;;;;21.27;19.40;;;6.00;99.90;;;;;;4991934;28;20038;-72
2022/12/27 13:39:00;;;;;;;22.13;20.08;;;6.00;99.90;;;;;;5019947;28;20049;-72
2022/12/27 13:41:56;;;;;;;22.42;20.42;;;6.10;99.90;;;;;;4987547;28;20395;-72
2022/12/27 13:45:01;;;;;;;25.38;21.60;;;6.10;99.90;;;;;;4984263;28;20277;-72
2022/12/27 13:47:53;;;;;;;25.02;20.15;;;6.10;99.90;;;;;;5024586;28;20050;-72
2022/12/27 13:50:36;;;;;;;21.08;19.38;;;6.10;99.90;;;;;;4990740;28;20033;-72
2022/12/27 13:53:23;;;;;;;21.30;19.52;;;6.10;99.90;;;;;;4995659;28;20053;-73
2022/12/27 13:56:14;;;;;;;22.38;20.25;;;6.10;99.90;;;;;;5017150;28;20134;-72
2022/12/27 13:59:17;;;;;;;23.25;20.80;;;6.20;99.90;;;;;;4989962;28;20038;-72
2022/12/27 14:02:05;;;;;;;20.40;18.75;;;6.20;99.90;;;;;;4993287;28;20042;-72
2022/12/27 14:04:57;;;;;;;21.00;18.98;;;6.20;99.90;;;;;;4990787;28;20138;-72
2022/12/27 14:08:00;;;;;;;19.65;18.10;;;6.20;99.90;;;;;;4994950;28;20045;-72
2022/12/27 14:10:49;;;;;;;24.92;20.92;;;6.20;99.90;;;;;;4999109;28;20050;-73
2022/12/27 14:13:41;;;;;;;21.02;19.17;;;6.20;99.90;;;;;;4995782;28;20046;-72
2022/12/27 14:16:45;;;;;;;21.92;19.80;;;6.10;99.90;;;;;;4990308;28;20065;-72
2022/12/27 14:19:34;;;;;;;21.45;19.52;;;6.10;99.90;;;;;;4994083;28;20077;-72
2022/12/27 14:22:25;;;;;;;20.92;19.15;;;6.00;99.90;;;;;;4991726;28;20124;-72
2022/12/27 14:25:22;;;;;;;20.95;19.00;;;6.00;99.90;;;;;;4993787;28;20637;-72
2022/12/27 14:28:11;;;;;;;21.00;18.98;;;6.00;99.90;;;;;;4981279;28;20042;-72
2022/12/27 14:30:57;;;;;;;20.48;18.85;;;6.00;99.90;;;;;;4992856;28;20427;-72
2022/12/27 14:33:43;;;;;;;22.75;20.75;;;5.90;99.90;;;;;;4996801;28;20061;-72
2022/12/27 14:36:34;;;;;;;20.75;18.77;;;5.90;99.90;;;;;;5016396;28;20050;-72
2022/12/27 14:39:24;;;;;;;23.98;20.02;;;5.80;99.90;;;;;;4988554;28;20053;-72
2022/12/27 14:42:15;;;;;;;21.38;19.50;;;5.80;99.90;;;;;;4995482;28;20060;-72
2022/12/27 14:45:08;;;;;;;21.60;19.70;;;5.80;99.90;;;;;;4992697;28;20054;-72
2022/12/27 14:48:00;;;;;;;21.73;19.88;;;5.80;99.90;;;;;;4993004;28;20069;-72
2022/12/27 14:50:46;;;;;;;23.50;21.05;;;5.80;99.90;;;;;;4995223;28;20438;-72
2022/12/27 14:53:34;;;;;;;26.42;21.42;;;5.70;99.90;;;;;;5010314;28;20138;-72
2022/12/27 14:56:26;;;;;;;21.45;19.73;;;5.70;99.90;;;;;;4988064;28;20046;-72
2022/12/27 14:59:18;;;;;;;21.88;20.27;;;5.70;99.90;;;;;;5043871;22;20424;-69
2022/12/27 15:01:51;;;;;;;21.85;20.00;;;5.60;99.90;;;;;;4978025;28;20124;-73